Time;durP1;ratioP1;P1;durP2;ratioP2;P2;SDS_P1;SDS_P2;PMS_P1;PMS_P2;Temp;Humidity;BMP_temperature;BMP_pressure;BME280_temperature;BME280_humidity;BME280_pressure;Samples;Min_cycle;Max_cycle;Signal;HPM_P1;HPM_P2
2023/12/04 00:02:24;;;;;;;12.00;8.80;;;;;;;8.70;44.30;102271.13;107039;1268;25244;-64
2023/12/04 00:04:51;;;;;;;12.70;9.40;;;;;;;8.71;44.24;102278.40;106840;1273;22533;-63
2023/12/04 00:07:19;;;;;;;13.10;8.90;;;;;;;8.74;43.92;102279.99;106609;1274;22548;-64
2023/12/04 00:09:48;;;;;;;11.80;8.10;;;;;;;8.75;43.93;102279.84;106688;1274;25247;-64
2023/12/04 00:12:16;;;;;;;13.80;9.60;;;;;;;8.78;43.68;102278.12;107080;1255;22539;-63
2023/12/04 00:14:43;;;;;;;12.70;9.10;;;;;;;8.76;43.45;102275.69;106844;1260;22533;-64
2023/12/04 00:17:11;;;;;;;14.10;10.00;;;;;;;8.72;43.28;102283.09;105889;1261;1003329;-64
2023/12/04 00:19:39;;;;;;;12.00;8.80;;;;;;;8.70;43.22;102289.64;106433;1264;22530;-64
2023/12/04 00:22:07;;;;;;;11.00;8.40;;;;;;;8.67;43.30;102286.84;107034;1256;22522;-64
2023/12/04 00:24:35;;;;;;;14.20;9.10;;;;;;;8.67;43.52;102292.90;107025;1257;22522;-63
2023/12/04 00:27:03;;;;;;;13.90;8.60;;;;;;;8.68;43.54;102294.11;106985;1256;22536;-64
2023/12/04 00:29:31;;;;;;;11.40;8.50;;;;;;;8.72;43.48;102290.52;106087;1255;1003520;-63
2023/12/04 00:31:59;;;;;;;11.00;8.40;;;;;;;8.72;42.44;102300.21;106122;1258;1003041;-63
2023/12/04 00:34:26;;;;;;;10.60;8.10;;;;;;;8.68;42.43;102306.59;106786;1259;22531;-65
2023/12/04 00:36:54;;;;;;;9.80;7.80;;;;;;;8.67;42.51;102310.02;106130;1255;1003798;-63
2023/12/04 00:39:22;;;;;;;14.80;8.50;;;;;;;8.64;42.22;102304.64;106846;1269;25352;-64
2023/12/04 00:41:49;;;;;;;12.30;8.20;;;;;;;8.60;42.48;102306.66;106004;1260;1003465;-64
2023/12/04 00:44:17;;;;;;;11.30;8.40;;;;;;;8.58;42.51;102317.38;106106;1258;1003064;-64
2023/12/04 00:46:45;;;;;;;12.00;8.30;;;;;;;8.56;42.47;102322.18;106800;1262;22990;-63
2023/12/04 00:49:13;;;;;;;10.40;8.30;;;;;;;8.51;42.13;102314.35;107046;1259;25257;-64
2023/12/04 00:51:41;;;;;;;12.40;8.20;;;;;;;8.49;42.76;102322.98;107000;1268;22526;-63
2023/12/04 00:54:09;;;;;;;11.90;8.40;;;;;;;8.52;43.17;102330.27;107006;1259;22506;-64
2023/12/04 00:56:40;;;;;;;13.00;8.50;;;;;;;8.53;42.93;102328.90;106853;1262;22530;-64
2023/12/04 00:59:08;;;;;;;11.70;8.40;;;;;;;8.53;42.82;102322.14;107016;1268;22533;-64
2023/12/04 01:01:36;;;;;;;10.70;7.90;;;;;;;8.54;42.95;102319.39;106744;1266;22996;-64
2023/12/04 01:04:04;;;;;;;12.00;9.00;;;;;;;8.55;42.97;102323.04;106899;1256;24390;-63
2023/12/04 01:06:32;;;;;;;11.30;8.70;;;;;;;8.53;43.05;102334.61;106275;1258;1002999;-65
2023/12/04 01:09:00;;;;;;;10.60;8.60;;;;;;;8.55;43.02;102335.33;105968;1260;1003096;-63
2023/12/04 01:11:28;;;;;;;12.70;8.40;;;;;;;8.55;43.41;102348.48;107041;1258;22529;-64
2023/12/04 01:13:56;;;;;;;10.80;8.60;;;;;;;8.57;43.25;102348.83;106846;1257;22546;-64
2023/12/04 01:16:24;;;;;;;13.50;9.60;;;;;;;8.57;43.18;102346.06;107002;1259;22522;-63
2023/12/04 01:18:52;;;;;;;11.80;8.90;;;;;;;8.57;43.38;102348.31;106850;1274;22997;-64
2023/12/04 01:21:21;;;;;;;10.10;7.80;;;;;;;8.59;43.17;102350.41;106267;1256;1003094;-64
2023/12/04 01:23:49;;;;;;;12.70;9.70;;;;;;;8.58;43.06;102346.24;106747;1260;24212;-63
2023/12/04 01:26:17;;;;;;;10.50;8.40;;;;;;;8.59;43.16;102347.48;106908;1260;24278;-64
2023/12/04 01:28:44;;;;;;;10.60;8.30;;;;;;;8.60;43.18;102346.29;106951;1258;22530;-63
2023/12/04 01:31:12;;;;;;;10.30;8.70;;;;;;;8.62;43.17;102357.04;106972;1257;24375;-64
2023/12/04 01:33:40;;;;;;;12.20;9.50;;;;;;;8.64;42.76;102359.81;107009;1269;22530;-63
2023/12/04 01:36:08;;;;;;;11.30;9.10;;;;;;;8.66;42.93;102354.83;107045;1253;22634;-64
2023/12/04 01:38:37;;;;;;;12.00;7.80;;;;;;;8.68;42.87;102350.69;106169;1259;1003049;-64
2023/12/04 01:41:05;;;;;;;13.90;8.80;;;;;;;8.70;42.91;102350.19;105867;1253;1002917;-65
2023/12/04 01:43:34;;;;;;;10.50;7.80;;;;;;;8.72;43.08;102351.25;106753;1256;23004;-63
2023/12/04 01:46:03;;;;;;;11.10;8.50;;;;;;;8.73;42.79;102358.54;106952;1256;24266;-65
2023/12/04 01:48:31;;;;;;;12.60;8.20;;;;;;;8.72;42.69;102364.58;106804;1258;22549;-65
2023/12/04 01:51:00;;;;;;;11.40;8.00;;;;;;;8.71;42.84;102367.52;106206;1269;1002908;-63
2023/12/04 01:53:28;;;;;;;11.30;8.20;;;;;;;8.72;42.52;102367.86;106872;1256;22527;-63
2023/12/04 01:55:56;;;;;;;10.70;8.30;;;;;;;8.69;42.16;102366.11;106634;1261;22538;-64
2023/12/04 01:58:24;;;;;;;12.30;8.60;;;;;;;8.67;42.08;102367.11;106360;1266;24673;-64
2023/12/04 02:00:51;;;;;;;10.40;8.60;;;;;;;8.65;42.32;102365.52;106706;1268;22520;-64
2023/12/04 02:03:19;;;;;;;10.10;7.80;;;;;;;8.64;42.42;102363.44;106430;1269;22561;-64
2023/12/04 02:05:47;;;;;;;11.40;8.60;;;;;;;8.57;42.58;102359.04;106641;1256;22526;-65
2023/12/04 02:08:15;;;;;;;9.80;7.80;;;;;;;8.63;42.61;102358.42;106595;1258;22523;-64
2023/12/04 02:10:43;;;;;;;10.40;7.50;;;;;;;8.64;42.49;102352.54;106639;1263;23264;-64
2023/12/04 02:13:11;;;;;;;11.30;8.20;;;;;;;8.64;42.44;102354.27;105899;1258;1003600;-64
2023/12/04 02:15:38;;;;;;;11.10;8.30;;;;;;;8.65;42.58;102353.41;105891;1258;1002838;-65
2023/12/04 02:18:06;;;;;;;10.40;7.40;;;;;;;8.65;42.28;102356.70;106630;1258;24200;-65
2023/12/04 02:20:34;;;;;;;8.10;6.60;;;;;;;8.64;42.12;102347.87;105767;1259;1003606;-65
2023/12/04 02:23:02;;;;;;;11.20;8.40;;;;;;;8.63;42.31;102354.95;106653;1262;22534;-65
2023/12/04 02:25:30;;;;;;;9.20;7.20;;;;;;;8.59;42.26;102358.71;106670;1269;22602;-64
2023/12/04 02:28:08;;;;;;;11.20;8.30;;;;;;;8.58;42.78;102361.30;106614;1269;22526;-65
2023/12/04 02:30:37;;;;;;;11.00;8.30;;;;;;;8.56;42.98;102363.19;106694;1257;25454;-64
2023/12/04 02:33:06;;;;;;;10.70;8.10;;;;;;;8.57;43.37;102361.80;106597;1259;22529;-66
2023/12/04 02:35:34;;;;;;;9.60;7.80;;;;;;;8.59;43.38;102358.36;105700;1260;1003400;-64
2023/12/04 02:38:02;;;;;;;11.00;8.30;;;;;;;8.59;43.29;102355.08;106529;1259;22534;-65
2023/12/04 02:40:30;;;;;;;11.10;8.10;;;;;;;8.57;43.09;102352.80;106632;1259;22543;-64
2023/12/04 02:42:57;;;;;;;11.00;7.80;;;;;;;8.56;43.13;102352.27;105590;1261;1003829;-65
2023/12/04 02:45:25;;;;;;;8.50;7.20;;;;;;;8.57;43.02;102352.29;105799;1263;1003379;-63
2023/12/04 02:47:53;;;;;;;10.20;7.60;;;;;;;8.57;43.03;102352.46;106371;1263;22548;-64
2023/12/04 02:50:21;;;;;;;9.60;7.60;;;;;;;8.57;43.23;102351.60;106554;1272;22530;-65
2023/12/04 02:52:49;;;;;;;9.70;8.10;;;;;;;8.57;43.30;102353.67;106328;1259;22801;-64
2023/12/04 02:55:17;;;;;;;9.80;7.40;;;;;;;8.56;43.40;102356.96;106597;1258;22526;-64
2023/12/04 02:57:45;;;;;;;9.10;7.40;;;;;;;8.56;43.33;102359.73;106662;1259;25290;-64
2023/12/04 03:00:13;;;;;;;11.70;7.30;;;;;;;8.55;43.25;102367.14;106651;1256;25331;-65
2023/12/04 03:02:40;;;;;;;11.30;8.10;;;;;;;8.55;43.19;102366.45;106918;1256;22528;-64
2023/12/04 03:05:08;;;;;;;9.90;7.60;;;;;;;8.54;42.83;102364.53;107079;1259;22528;-65
2023/12/04 03:07:37;;;;;;;10.10;7.80;;;;;;;8.53;42.66;102370.23;106722;1260;22527;-65
2023/12/04 03:10:06;;;;;;;10.20;7.90;;;;;;;8.51;42.47;102375.23;106980;1259;22595;-64
2023/12/04 03:12:34;;;;;;;8.50;6.90;;;;;;;8.49;42.64;102376.59;106864;1257;22554;-64
2023/12/04 03:15:04;;;;;;;9.00;7.40;;;;;;;8.62;42.20;102384.02;106240;1257;1002982;-65
2023/12/04 03:17:31;;;;;;;8.60;7.40;;;;;;;8.49;42.23;102386.44;106786;1274;24224;-65
2023/12/04 03:19:59;;;;;;;8.50;6.90;;;;;;;8.53;42.36;102390.64;106735;1262;22520;-65
2023/12/04 03:22:27;;;;;;;9.30;7.20;;;;;;;8.87;41.37;102394.00;106911;1257;22527;-66
2023/12/04 03:24:55;;;;;;;9.80;6.80;;;;;;;8.93;41.23;102394.59;106910;1272;22527;-65
2023/12/04 03:27:22;;;;;;;9.00;6.90;;;;;;;8.94;41.20;102402.21;106963;1273;25352;-65
2023/12/04 03:29:50;;;;;;;9.60;6.80;;;;;;;8.95;41.21;102407.25;106699;1261;25362;-65
2023/12/04 03:32:18;;;;;;;10.70;8.20;;;;;;;8.97;41.24;102406.73;106901;1260;22777;-65
2023/12/04 03:34:46;;;;;;;10.10;7.80;;;;;;;8.97;41.58;102410.20;107051;1258;22787;-65
2023/12/04 03:37:13;;;;;;;11.00;7.50;;;;;;;8.97;41.48;102415.23;106143;1258;1003404;-65
2023/12/04 03:39:41;;;;;;;10.80;7.80;;;;;;;8.97;41.42;102418.52;106772;1263;22534;-66
2023/12/04 03:42:09;;;;;;;10.00;7.50;;;;;;;8.98;41.38;102423.90;106050;1261;1002983;-65
2023/12/04 03:44:37;;;;;;;8.40;6.90;;;;;;;8.99;41.25;102426.84;106836;1266;22557;-65
2023/12/04 03:47:05;;;;;;;10.00;7.50;;;;;;;8.99;41.53;102426.66;106907;1263;25355;-64
2023/12/04 03:49:32;;;;;;;10.70;7.40;;;;;;;8.98;41.27;102424.23;106202;1258;1003700;-65
2023/12/04 03:52:00;;;;;;;7.80;7.00;;;;;;;8.98;41.12;102421.13;106809;1259;22526;-63
2023/12/04 03:54:28;;;;;;;8.70;6.70;;;;;;;9.00;40.88;102422.17;106947;1258;22751;-65
2023/12/04 03:56:55;;;;;;;8.40;6.50;;;;;;;9.01;40.76;102428.93;105963;1263;1003544;-65
2023/12/04 03:59:23;;;;;;;8.40;6.60;;;;;;;9.01;41.02;102433.77;105896;1264;1003665;-64
2023/12/04 04:01:51;;;;;;;8.30;6.90;;;;;;;9.00;40.91;102431.87;106819;1263;22640;-66
2023/12/04 04:04:19;;;;;;;7.50;6.20;;;;;;;9.00;40.80;102431.88;106961;1259;22527;-64
2023/12/04 04:06:47;;;;;;;9.30;6.10;;;;;;;8.99;40.79;102440.17;106935;1258;22542;-65
2023/12/04 04:09:15;;;;;;;8.30;6.60;;;;;;;8.97;40.80;102442.23;106253;1256;1003770;-65
2023/12/04 04:11:43;;;;;;;7.50;6.10;;;;;;;8.95;40.67;102441.85;107100;1257;22534;-64
2023/12/04 04:14:11;;;;;;;8.10;6.40;;;;;;;8.94;40.72;102440.46;106786;1266;22519;-65
2023/12/04 04:16:40;;;;;;;7.80;6.30;;;;;;;8.90;41.01;102439.54;106893;1263;22530;-65
2023/12/04 04:19:07;;;;;;;8.40;6.30;;;;;;;8.84;41.37;102437.75;106721;1257;22533;-67
2023/12/04 04:21:40;;;;;;;8.40;6.70;;;;;;;8.85;41.23;102443.64;106780;1258;22523;-66
2023/12/04 04:24:09;;;;;;;10.60;6.60;;;;;;;8.83;40.97;102442.58;106286;1256;1003685;-64
2023/12/04 04:26:36;;;;;;;9.70;7.10;;;;;;;8.78;41.07;102443.72;106814;1265;24282;-66
2023/12/04 04:29:04;;;;;;;10.40;7.10;;;;;;;8.72;41.23;102446.23;106178;1258;1002841;-66
2023/12/04 04:31:32;;;;;;;9.60;6.60;;;;;;;8.63;41.12;102444.73;106925;1259;22526;-65
2023/12/04 04:34:00;;;;;;;9.90;7.30;;;;;;;8.64;41.59;102451.50;107003;1261;22534;-65
2023/12/04 04:36:28;;;;;;;10.20;6.40;;;;;;;8.45;41.80;102455.73;107018;1268;22522;-65
2023/12/04 04:38:57;;;;;;;7.00;6.00;;;;;;;8.28;42.16;102454.44;106854;1259;22552;-65
2023/12/04 04:41:24;;;;;;;6.00;5.20;;;;;;;8.13;41.98;102456.63;106894;1259;22534;-65
2023/12/04 04:43:53;;;;;;;6.90;5.50;;;;;;;7.91;42.43;102460.94;107019;1256;22519;-64
2023/12/04 04:46:21;;;;;;;8.20;6.50;;;;;;;8.32;42.15;102466.62;106971;1256;22602;-65
2023/12/04 04:48:49;;;;;;;9.40;6.60;;;;;;;8.40;41.90;102467.60;106984;1256;22535;-65
2023/12/04 04:51:17;;;;;;;9.90;6.40;;;;;;;7.88;42.85;102470.56;106206;1257;1002708;-65
2023/12/04 04:53:44;;;;;;;9.30;7.40;;;;;;;7.73;43.51;102478.42;106932;1258;22147;-66
2023/12/04 04:56:12;;;;;;;8.90;6.50;;;;;;;7.90;43.07;102470.41;105996;1264;1003342;-66
2023/12/04 04:58:40;;;;;;;9.60;7.30;;;;;;;8.14;42.56;102468.20;106777;1259;22539;-65
2023/12/04 05:01:08;;;;;;;9.40;7.00;;;;;;;7.72;43.75;102481.67;107046;1256;22523;-65
2023/12/04 05:03:36;;;;;;;8.90;7.00;;;;;;;7.65;44.17;102484.83;106820;1258;25300;-65
2023/12/04 05:06:04;;;;;;;9.90;7.50;;;;;;;7.63;44.33;102491.19;107000;1260;22530;-65
2023/12/04 05:08:32;;;;;;;11.10;8.20;;;;;;;7.61;44.33;102492.55;106762;1261;25377;-66
2023/12/04 05:11:00;;;;;;;11.10;7.40;;;;;;;7.60;44.18;102495.83;106965;1261;22526;-66
2023/12/04 05:13:28;;;;;;;10.40;8.40;;;;;;;7.59;44.38;102502.19;107049;1256;22526;-66
2023/12/04 05:15:56;;;;;;;10.70;8.20;;;;;;;7.57;44.50;102503.86;107051;1256;22522;-65
2023/12/04 05:18:25;;;;;;;10.20;7.80;;;;;;;7.51;44.55;102506.54;106930;1272;23868;-65
2023/12/04 05:20:53;;;;;;;10.30;7.40;;;;;;;7.49;44.83;102502.17;106841;1268;22538;-66
2023/12/04 05:23:20;;;;;;;10.50;7.70;;;;;;;7.51;45.17;102503.23;106709;1260;25288;-65
2023/12/04 05:25:48;;;;;;;9.40;7.70;;;;;;;7.55;45.06;102501.23;106985;1259;22548;-66
2023/12/04 05:28:17;;;;;;;10.80;8.50;;;;;;;7.55;44.81;102504.01;107010;1256;22522;-65
2023/12/04 05:31:01;;;;;;;11.00;8.50;;;;;;;7.67;44.62;102507.70;103594;1298;544869;-64
2023/12/04 05:33:29;;;;;;;9.40;7.80;;;;;;;7.74;44.44;102517.48;105095;1265;1002946;-67
2023/12/04 05:35:57;;;;;;;10.10;8.20;;;;;;;7.74;44.14;102518.70;105184;1273;1002850;-65
2023/12/04 05:38:25;;;;;;;12.10;8.40;;;;;;;7.76;43.89;102515.10;105895;1273;22969;-65
2023/12/04 05:40:54;;;;;;;11.60;8.70;;;;;;;7.76;43.86;102523.40;105676;1277;22546;-65
2023/12/04 05:43:22;;;;;;;11.80;7.70;;;;;;;7.75;43.79;102528.20;105983;1273;25334;-66
2023/12/04 05:45:50;;;;;;;11.00;8.90;;;;;;;7.73;43.71;102524.36;105771;1273;312736;-66
2023/12/04 05:48:19;;;;;;;11.30;8.30;;;;;;;7.70;43.66;102522.77;105329;1267;1003607;-65
2023/12/04 05:50:47;;;;;;;11.30;8.30;;;;;;;7.68;43.61;102519.44;105230;1267;1003162;-66
2023/12/04 05:53:15;;;;;;;11.80;9.00;;;;;;;7.67;43.92;102516.14;105963;1270;22542;-66
2023/12/04 05:55:45;;;;;;;12.50;8.70;;;;;;;7.65;43.85;102511.45;105349;1264;1002845;-66
2023/12/04 05:58:13;;;;;;;12.20;8.80;;;;;;;7.63;43.96;102509.34;106283;1266;22545;-67
2023/12/04 06:00:41;;;;;;;11.70;8.70;;;;;;;7.63;44.25;102516.77;105405;1265;1003073;-66
2023/12/04 06:03:09;;;;;;;11.00;8.30;;;;;;;7.64;44.05;102523.00;106078;1266;22536;-65
2023/12/04 06:05:37;;;;;;;10.30;8.30;;;;;;;7.78;43.69;102525.14;106114;1266;22536;-66
2023/12/04 06:08:04;;;;;;;15.20;9.30;;;;;;;7.87;43.41;102534.64;106044;1270;22550;-65
2023/12/04 06:10:34;;;;;;;11.60;9.50;;;;;;;7.91;43.49;102537.64;105373;1280;1003570;-65
2023/12/04 06:13:02;;;;;;;11.00;8.90;;;;;;;7.88;43.23;102537.95;106060;1266;22551;-64
2023/12/04 06:15:30;;;;;;;14.60;9.70;;;;;;;7.87;43.48;102543.63;105992;1266;25376;-65
2023/12/04 06:17:58;;;;;;;13.10;9.90;;;;;;;7.87;43.48;102553.48;106161;1269;22554;-65
2023/12/04 06:20:26;;;;;;;13.60;9.10;;;;;;;7.90;43.50;102553.34;105875;1270;22546;-65
2023/12/04 06:22:54;;;;;;;13.30;10.40;;;;;;;7.89;43.76;102558.36;106162;1270;22586;-65
2023/12/04 06:25:22;;;;;;;12.20;9.40;;;;;;;7.90;43.84;102556.45;106145;1279;22593;-66
2023/12/04 06:27:51;;;;;;;13.20;9.90;;;;;;;7.88;43.71;102565.23;105961;1266;25262;-64
2023/12/04 06:30:19;;;;;;;13.70;9.20;;;;;;;7.88;43.54;102569.05;106105;1270;24239;-65
2023/12/04 06:32:48;;;;;;;12.50;9.60;;;;;;;7.84;43.44;102568.10;106097;1269;22545;-66
2023/12/04 06:35:16;;;;;;;11.80;9.50;;;;;;;7.82;43.40;102565.13;105860;1273;22649;-65
2023/12/04 06:37:48;;;;;;;12.50;9.40;;;;;;;8.18;42.69;102570.80;106124;1270;22548;-67
2023/12/04 06:40:17;;;;;;;14.10;10.00;;;;;;;8.34;42.53;102568.64;106182;1269;25376;-65
2023/12/04 06:42:45;;;;;;;14.50;10.00;;;;;;;8.37;42.27;102571.13;105854;1270;22641;-67
2023/12/04 06:45:14;;;;;;;12.90;8.40;;;;;;;8.39;42.28;102578.78;106310;1279;22571;-66
2023/12/04 06:47:41;;;;;;;11.80;9.40;;;;;;;8.39;41.96;102579.12;106087;1269;25380;-66
2023/12/04 06:50:09;;;;;;;11.60;9.70;;;;;;;8.33;42.21;102585.23;105935;1273;25409;-66
2023/12/04 06:52:37;;;;;;;12.50;9.50;;;;;;;8.28;42.34;102587.06;105958;1268;22540;-66
2023/12/04 06:55:05;;;;;;;12.70;9.00;;;;;;;8.31;42.14;102594.21;106020;1271;22546;-66
2023/12/04 06:57:33;;;;;;;14.70;9.30;;;;;;;8.30;42.22;102594.86;106064;1269;22554;-63
2023/12/04 07:00:03;;;;;;;13.30;9.30;;;;;;;8.28;42.53;102603.48;105891;1273;22549;-64
2023/12/04 07:02:50;;;;;;;14.70;11.00;;;;;;;8.24;42.50;102603.23;106098;1270;22539;-67
2023/12/04 07:05:19;;;;;;;14.10;10.40;;;;;;;8.26;42.76;102603.45;105183;1270;1002952;-67
2023/12/04 07:07:46;;;;;;;14.80;10.70;;;;;;;8.25;42.47;102602.90;105952;1268;22543;-65
2023/12/04 07:10:14;;;;;;;15.10;10.80;;;;;;;8.22;42.38;102612.17;105786;1274;22546;-67
2023/12/04 07:12:43;;;;;;;15.50;10.30;;;;;;;8.19;42.32;102616.44;105894;1280;22546;-66
2023/12/04 07:15:12;;;;;;;16.90;11.40;;;;;;;8.16;42.58;102619.86;105200;1269;1003390;-66
2023/12/04 07:17:40;;;;;;;13.30;10.00;;;;;;;8.16;42.75;102616.73;106042;1267;22589;-64
2023/12/04 07:20:08;;;;;;;14.30;10.70;;;;;;;8.21;42.94;102620.98;105828;1274;22543;-66
2023/12/04 07:22:36;;;;;;;14.30;10.40;;;;;;;8.25;42.76;102619.51;106054;1268;25365;-66
2023/12/04 07:25:09;;;;;;;12.80;9.80;;;;;;;8.28;42.91;102620.42;105193;1265;1003609;-65
2023/12/04 07:27:37;;;;;;;15.40;10.70;;;;;;;8.34;42.95;102627.95;105356;1265;1003277;-64
2023/12/04 07:30:06;;;;;;;12.20;9.90;;;;;;;8.38;42.72;102631.84;106040;1270;22567;-66
2023/12/04 07:32:35;;;;;;;14.90;11.10;;;;;;;8.38;42.54;102634.77;106045;1270;22547;-65
2023/12/04 07:35:04;;;;;;;12.20;10.00;;;;;;;8.41;42.56;102636.91;106274;1269;22544;-66
2023/12/04 07:37:32;;;;;;;14.30;10.40;;;;;;;8.43;42.39;102640.22;106003;1267;22557;-65
2023/12/04 07:40:00;;;;;;;14.90;10.10;;;;;;;8.46;42.54;102644.95;105942;1271;22534;-67
2023/12/04 07:42:27;;;;;;;13.50;10.20;;;;;;;8.49;42.26;102646.91;105304;1269;1003042;-65
2023/12/04 07:44:55;;;;;;;13.00;9.60;;;;;;;8.51;42.13;102650.06;105618;1277;1002937;-64
2023/12/04 07:47:23;;;;;;;12.60;9.20;;;;;;;8.51;42.14;102649.02;106219;1267;25368;-67
2023/12/04 07:49:52;;;;;;;12.20;9.70;;;;;;;8.53;42.25;102658.40;106316;1262;22558;-67
2023/12/04 07:52:20;;;;;;;13.00;9.70;;;;;;;8.56;42.42;102662.25;106304;1265;22553;-66
2023/12/04 07:54:48;;;;;;;13.80;9.90;;;;;;;8.60;42.24;102664.05;106349;1276;22541;-65
2023/12/04 07:57:16;;;;;;;14.50;9.90;;;;;;;8.63;41.91;102663.91;106628;1274;22572;-67
2023/12/04 07:59:44;;;;;;;12.00;10.10;;;;;;;8.63;41.87;102666.18;106496;1264;22532;-66
2023/12/04 08:02:15;;;;;;;10.80;9.10;;;;;;;8.65;42.09;102665.16;105811;1258;1003819;-66
2023/12/04 08:04:43;;;;;;;15.40;10.50;;;;;;;8.65;42.00;102659.29;105522;1262;1003826;-66
2023/12/04 08:07:11;;;;;;;13.00;9.90;;;;;;;8.62;42.25;102656.64;106205;1261;22536;-66
2023/12/04 08:09:39;;;;;;;12.10;9.30;;;;;;;8.55;42.16;102655.83;106323;1262;22563;-65
2023/12/04 08:12:07;;;;;;;13.40;9.40;;;;;;;8.55;42.40;102657.39;106268;1264;25355;-66
2023/12/04 08:14:34;;;;;;;13.20;10.00;;;;;;;8.56;42.72;102660.86;106211;1264;22536;-66
2023/12/04 08:17:02;;;;;;;13.40;9.40;;;;;;;8.61;42.76;102666.67;106349;1273;22536;-67
2023/12/04 08:19:31;;;;;;;13.00;10.30;;;;;;;8.68;42.77;102666.59;105648;1261;1003547;-66
2023/12/04 08:21:59;;;;;;;13.20;10.10;;;;;;;8.71;42.93;102669.60;106419;1263;22536;-65
2023/12/04 08:24:27;;;;;;;15.00;10.70;;;;;;;8.75;42.90;102666.54;106668;1264;25355;-67
2023/12/04 08:26:57;;;;;;;14.00;10.40;;;;;;;8.75;42.60;102665.67;106686;1260;25303;-67
2023/12/04 08:29:25;;;;;;;12.80;9.60;;;;;;;8.73;42.21;102662.02;106618;1257;22561;-68
2023/12/04 08:31:52;;;;;;;13.60;10.70;;;;;;;8.69;42.55;102653.81;106382;1264;22539;-66
2023/12/04 08:34:20;;;;;;;14.80;10.60;;;;;;;8.68;42.56;102651.21;106687;1262;22567;-65
2023/12/04 08:36:48;;;;;;;14.90;10.20;;;;;;;8.71;42.65;102653.31;106628;1264;22540;-66
2023/12/04 08:39:16;;;;;;;13.10;10.10;;;;;;;8.75;42.68;102650.45;106609;1264;22536;-66
2023/12/04 08:41:47;;;;;;;14.20;10.90;;;;;;;8.81;42.81;102656.25;106746;1264;25355;-65
2023/12/04 08:44:27;;;;;;;13.80;9.90;;;;;;;8.85;42.64;102657.04;106379;1268;22536;-66
2023/12/04 08:46:57;;;;;;;14.60;10.30;;;;;;;8.90;42.56;102662.11;105567;1265;1003369;-66
2023/12/04 08:49:25;;;;;;;12.90;10.00;;;;;;;8.93;42.49;102656.27;105830;1261;1003228;-66
2023/12/04 08:52:07;;;;;;;13.30;10.10;;;;;;;8.79;42.38;102649.14;106573;1260;22513;-65
2023/12/04 08:54:38;;;;;;;15.40;10.70;;;;;;;8.65;42.83;102656.34;106738;1262;24265;-66
2023/12/04 08:57:06;;;;;;;16.40;11.60;;;;;;;8.59;42.87;102657.64;106564;1264;25250;-65
2023/12/04 08:59:34;;;;;;;13.60;10.10;;;;;;;8.58;43.08;102656.41;106536;1261;22545;-66
2023/12/04 09:02:03;;;;;;;12.70;10.00;;;;;;;8.69;42.82;102657.96;106595;1262;24208;-66
2023/12/04 09:04:32;;;;;;;13.80;10.10;;;;;;;8.81;42.68;102658.68;105870;1264;1002861;-65
2023/12/04 09:07:00;;;;;;;13.40;10.40;;;;;;;8.89;42.65;102656.73;106662;1258;22552;-66
2023/12/04 09:09:48;;;;;;;15.00;10.40;;;;;;;8.92;42.49;102661.80;105905;1263;1002494;-65
2023/12/04 09:12:17;;;;;;;14.90;10.80;;;;;;;8.97;42.40;102663.95;106632;1258;25355;-66
2023/12/04 09:14:45;;;;;;;14.10;10.80;;;;;;;9.00;42.37;102664.69;106631;1259;22547;-67
2023/12/04 09:17:14;;;;;;;13.70;11.10;;;;;;;9.05;42.39;102669.61;105940;1257;1002793;-67
2023/12/04 09:19:41;;;;;;;12.10;10.50;;;;;;;9.06;42.12;102666.33;106301;1257;25344;-66
2023/12/04 09:22:09;;;;;;;15.80;10.90;;;;;;;9.03;41.51;102665.27;106565;1278;25354;-65
2023/12/04 09:24:46;;;;;;;14.60;10.50;;;;;;;9.01;41.64;102657.60;105757;1274;1003167;-66
2023/12/04 09:27:14;;;;;;;12.30;10.00;;;;;;;9.01;41.78;102660.03;106566;1273;25383;-65
2023/12/04 09:29:42;;;;;;;14.30;11.20;;;;;;;9.01;41.62;102665.05;106675;1272;22554;-66
2023/12/04 09:32:10;;;;;;;13.60;10.30;;;;;;;8.97;41.58;102659.62;106322;1273;22650;-66
2023/12/04 09:34:38;;;;;;;12.70;10.30;;;;;;;8.95;41.87;102657.52;105759;1264;1002802;-66
2023/12/04 09:37:05;;;;;;;15.90;10.20;;;;;;;8.96;41.88;102657.88;105629;1273;1014739;-66
2023/12/04 09:39:39;;;;;;;15.20;10.80;;;;;;;8.93;42.02;102661.45;106700;1272;22535;-67
2023/12/04 09:42:07;;;;;;;12.00;9.70;;;;;;;8.94;42.18;102654.39;106623;1258;22533;-67
2023/12/04 09:44:36;;;;;;;11.80;9.90;;;;;;;8.98;41.94;102655.31;106606;1262;22549;-66
2023/12/04 09:47:04;;;;;;;14.20;10.70;;;;;;;9.00;41.79;102656.55;106562;1262;22597;-67
2023/12/04 09:49:32;;;;;;;14.50;11.10;;;;;;;9.01;41.90;102658.14;106357;1276;22536;-66
2023/12/04 09:52:02;;;;;;;13.90;11.10;;;;;;;9.00;41.65;102664.17;106548;1273;22555;-65
2023/12/04 09:54:30;;;;;;;14.50;10.20;;;;;;;8.96;41.67;102666.88;106557;1273;25233;-65
2023/12/04 09:56:58;;;;;;;14.70;10.60;;;;;;;8.92;41.82;102668.71;106656;1263;22536;-66
2023/12/04 09:59:26;;;;;;;14.70;10.90;;;;;;;8.90;41.84;102670.60;106534;1274;22530;-67
2023/12/04 10:01:53;;;;;;;11.80;9.60;;;;;;;8.88;42.09;102672.46;106438;1267;22536;-66
2023/12/04 10:04:22;;;;;;;13.70;10.60;;;;;;;8.86;41.92;102667.95;106638;1258;22557;-67
2023/12/04 10:06:50;;;;;;;13.70;10.60;;;;;;;8.75;42.09;102666.19;105560;1273;1003707;-65
2023/12/04 10:09:19;;;;;;;12.90;10.80;;;;;;;8.83;42.07;102671.53;105857;1273;1003824;-67
2023/12/04 10:11:46;;;;;;;13.50;10.60;;;;;;;8.86;41.94;102670.36;106583;1258;22527;-67
2023/12/04 10:14:16;;;;;;;13.90;10.40;;;;;;;8.82;41.96;102666.33;106635;1275;25263;-65
2023/12/04 10:16:44;;;;;;;12.50;9.90;;;;;;;8.81;42.13;102668.70;106600;1258;25308;-65
2023/12/04 10:19:17;;;;;;;17.00;12.20;;;;;;;8.81;42.13;102671.33;106342;1259;24199;-67
2023/12/04 10:21:46;;;;;;;13.60;9.80;;;;;;;8.85;42.30;102668.80;106629;1260;22552;-66
2023/12/04 10:24:46;;;;;;;15.20;10.70;;;;;;;8.90;42.08;102673.71;106671;1261;22536;-67
2023/12/04 10:27:17;;;;;;;14.40;10.50;;;;;;;8.92;42.03;102673.73;106266;1278;22536;-66
2023/12/04 10:29:47;;;;;;;15.00;11.30;;;;;;;8.81;42.19;102672.52;105569;1278;1003294;-66
2023/12/04 10:32:21;;;;;;;13.00;10.40;;;;;;;8.90;42.02;102670.77;105635;1265;1003355;-65
2023/12/04 10:34:49;;;;;;;13.10;9.30;;;;;;;8.96;41.93;102664.79;106234;1278;22529;-67
2023/12/04 10:37:19;;;;;;;14.80;10.20;;;;;;;8.99;41.61;102663.64;106280;1276;25389;-67
2023/12/04 10:39:48;;;;;;;11.50;9.50;;;;;;;8.98;41.33;102666.04;105567;1278;1003049;-67
2023/12/04 10:42:43;;;;;;;14.70;10.40;;;;;;;8.95;41.52;102665.48;106312;1283;24215;-65
2023/12/04 10:45:11;;;;;;;15.20;10.90;;;;;;;8.91;41.66;102659.88;105171;1282;1003401;-67
2023/12/04 10:47:39;;;;;;;15.00;10.70;;;;;;;8.87;41.71;102663.98;105876;1286;22546;-66
2023/12/04 10:50:07;;;;;;;12.20;10.10;;;;;;;8.86;41.97;102666.38;106322;1268;25297;-67
2023/12/04 10:52:35;;;;;;;12.80;10.60;;;;;;;8.87;41.79;102667.08;106276;1268;25301;-66
2023/12/04 10:55:06;;;;;;;14.30;10.10;;;;;;;8.87;42.11;102673.82;106261;1279;24008;-67
2023/12/04 10:57:37;;;;;;;14.20;10.60;;;;;;;8.87;42.30;102676.79;105990;1281;22545;-66
2023/12/04 11:00:05;;;;;;;16.10;11.60;;;;;;;8.91;42.25;102673.04;106213;1278;22738;-65
2023/12/04 11:02:34;;;;;;;12.40;10.00;;;;;;;8.93;42.09;102676.17;106112;1267;22578;-65
2023/12/04 11:08:19;;;;;;;15.30;11.20;;;;;;;8.96;42.10;102685.23;103604;1298;545081;-67
2023/12/04 11:10:57;;;;;;;16.60;10.70;;;;;;;8.92;41.92;102693.98;105611;1285;22532;-68
2023/12/04 11:13:29;;;;;;;16.50;11.20;;;;;;;8.91;42.02;102697.27;105858;1285;25361;-65
2023/12/04 11:16:15;;;;;;;14.40;10.90;;;;;;;8.89;42.06;102694.98;105850;1283;22584;-67
2023/12/04 11:18:43;;;;;;;13.90;11.10;;;;;;;8.85;41.73;102694.58;105905;1279;22533;-65
2023/12/04 11:21:13;;;;;;;14.30;10.30;;;;;;;8.79;41.91;102689.45;105972;1278;301786;-67
2023/12/04 11:23:41;;;;;;;14.60;11.20;;;;;;;8.75;41.90;102683.33;106394;1267;22540;-65